createdAt,value
2024-04-22T00:03:01.227Z,8.52
2024-04-22T00:06:04.576Z,8.52
2024-04-22T00:09:09.173Z,8.49
2024-04-22T00:12:13.642Z,8.38
2024-04-22T00:15:18.406Z,8.42
2024-04-22T00:18:22.680Z,8.47
2024-04-22T00:21:26.870Z,8.45
2024-04-22T00:24:30.770Z,8.43
2024-04-22T00:27:34.999Z,8.39
2024-04-22T00:30:38.518Z,8.47
2024-04-22T00:33:42.949Z,8.42
2024-04-22T00:36:46.144Z,8.52
2024-04-22T00:39:51.451Z,8.59
2024-04-22T00:42:55.322Z,8.66
2024-04-22T00:46:00.192Z,8.60
2024-04-22T00:49:04.697Z,8.56
2024-04-22T00:52:09.608Z,8.33
2024-04-22T00:55:13.429Z,8.26
2024-04-22T00:58:18.855Z,8.36
2024-04-22T01:01:23.360Z,8.39
2024-04-22T01:04:28.670Z,8.56
2024-04-22T01:07:34.109Z,8.75
2024-04-22T01:10:38.288Z,8.71
2024-04-22T01:13:42.876Z,8.78
2024-04-22T01:16:56.902Z,8.89
2024-04-22T01:20:00.879Z,8.84
2024-04-22T01:23:05.235Z,8.87
2024-04-22T01:26:10.509Z,8.95
2024-04-22T01:29:15.663Z,9.11
2024-04-22T01:32:20.892Z,9.40
2024-04-22T01:35:24.431Z,9.49
2024-04-22T01:38:28.306Z,9.47
2024-04-22T01:41:32.663Z,9.53
2024-04-22T01:44:36.330Z,9.70
2024-04-22T01:47:41.503Z,9.67
2024-04-22T01:50:47.318Z,9.78
2024-04-22T01:53:53.950Z,9.88
2024-04-22T01:56:58.115Z,9.83
2024-04-22T02:00:02.066Z,9.81
2024-04-22T02:03:14.720Z,9.87
2024-04-22T02:06:19.692Z,9.95
2024-04-22T02:09:23.509Z,9.99
2024-04-22T02:12:29.160Z,9.88
2024-04-22T02:15:32.888Z,10.08
2024-04-22T02:18:38.117Z,10.19
2024-04-22T02:21:41.648Z,10.39
2024-04-22T02:24:46.006Z,10.73
2024-04-22T02:27:52.133Z,10.83
2024-04-22T02:30:56.577Z,10.98
2024-04-22T02:34:00.469Z,10.97
2024-04-22T02:37:04.823Z,10.98
2024-04-22T02:40:08.748Z,11.00
2024-04-22T02:43:15.902Z,11.02
2024-04-22T02:46:19.271Z,11.14
2024-04-22T02:49:23.842Z,10.97
2024-04-22T02:52:30.907Z,10.60
2024-04-22T02:55:34.668Z,10.06
2024-04-22T02:58:40.747Z,9.23
2024-04-22T03:01:46.880Z,8.40
2024-04-22T03:04:53.105Z,7.63
2024-04-22T03:07:57.041Z,7.30
2024-04-22T03:11:00.862Z,7.35
2024-04-22T03:14:05.073Z,7.46
2024-04-22T03:17:09.147Z,7.57
2024-04-22T03:20:13.204Z,7.57
2024-04-22T03:23:17.155Z,7.43
2024-04-22T03:26:21.501Z,7.45
2024-04-22T03:29:25.402Z,7.52
2024-04-22T03:32:31.985Z,7.57
2024-04-22T03:35:36.372Z,7.53
2024-04-22T03:38:40.921Z,7.56
2024-04-22T03:41:44.920Z,7.63
2024-04-22T03:44:52.174Z,7.57
2024-04-22T03:48:14.334Z,7.62
2024-04-22T03:51:18.755Z,7.69
2024-04-22T03:54:23.905Z,7.71
2024-04-22T03:57:28.530Z,7.64
2024-04-22T04:00:32.434Z,7.62
2024-04-22T04:03:36.724Z,7.56
2024-04-22T04:06:40.764Z,7.50
2024-04-22T04:09:45.538Z,7.45
2024-04-22T04:12:52.692Z,7.32
2024-04-22T04:15:57.036Z,7.28
2024-04-22T04:19:01.177Z,7.38
2024-04-22T04:22:05.571Z,7.55
2024-04-22T04:25:09.520Z,7.85
2024-04-22T04:28:13.864Z,7.92
2024-04-22T04:31:18.910Z,8.02
2024-04-22T04:34:23.574Z,8.04
2024-04-22T04:37:27.366Z,7.94
2024-04-22T04:40:31.682Z,8.01
2024-04-22T04:43:36.171Z,8.19
2024-04-22T04:46:40.736Z,8.47
2024-04-22T04:49:44.793Z,8.67
2024-04-22T04:52:49.097Z,8.71
2024-04-22T04:55:56.125Z,8.75
2024-04-22T04:59:00.614Z,8.71
2024-04-22T05:02:04.590Z,8.54
2024-04-22T05:05:09.094Z,8.32
2024-04-22T05:08:12.989Z,8.33
2024-04-22T05:11:17.939Z,8.64
2024-04-22T05:14:21.852Z,8.94
2024-04-22T05:17:26.384Z,9.00
2024-04-22T05:20:33.145Z,9.28
2024-04-22T05:23:37.430Z,9.40
2024-04-22T05:26:41.330Z,9.35
2024-04-22T05:29:45.685Z,9.19
2024-04-22T05:32:49.891Z,9.16
2024-04-22T05:36:15.058Z,9.40
2024-04-22T05:39:18.971Z,9.42
2024-04-22T05:42:23.022Z,9.60
2024-04-22T05:45:26.859Z,9.84
2024-04-22T05:48:30.925Z,10.11
2024-04-22T05:51:34.262Z,10.35
2024-04-22T05:54:38.797Z,10.60
2024-04-22T05:57:45.854Z,10.85
2024-04-22T06:00:53.439Z,11.01
2024-04-22T06:03:56.828Z,11.02
2024-04-22T06:07:00.529Z,10.87
2024-04-22T06:10:04.638Z,10.74
2024-04-22T06:13:08.775Z,10.68
2024-04-22T06:16:12.758Z,10.63
2024-04-22T06:19:17.205Z,10.57
2024-04-22T06:22:21.835Z,10.75
2024-04-22T06:25:25.166Z,10.70
2024-04-22T06:28:29.576Z,10.53
2024-04-22T06:31:33.237Z,10.25
2024-04-22T06:34:37.972Z,10.11
2024-04-22T06:37:42.342Z,9.95
2024-04-22T06:40:46.112Z,9.95
2024-04-22T06:43:52.733Z,9.97
2024-04-22T06:46:57.801Z,10.06
2024-04-22T06:50:01.522Z,10.05
2024-04-22T06:53:06.224Z,9.95
2024-04-22T06:56:10.338Z,10.16
2024-04-22T06:59:14.054Z,10.36
2024-04-22T07:02:20.282Z,10.45
2024-04-22T07:05:26.435Z,10.66
2024-04-22T07:08:29.892Z,10.93
2024-04-22T07:11:37.553Z,10.84
2024-04-22T07:14:42.049Z,10.83
2024-04-22T07:17:45.442Z,10.80
2024-04-22T07:20:48.679Z,10.90
2024-04-22T07:23:55.020Z,10.66
2024-04-22T07:26:58.406Z,10.53
2024-04-22T07:30:05.193Z,10.22
2024-04-22T07:33:09.039Z,9.84
2024-04-22T07:36:27.634Z,9.99
2024-04-22T07:39:34.145Z,10.12
2024-04-22T07:42:38.249Z,10.26
2024-04-22T07:45:44.895Z,10.15
2024-04-22T07:48:48.611Z,10.36
2024-04-22T07:51:55.063Z,10.52
2024-04-22T07:54:59.049Z,10.53
2024-04-22T07:58:03.512Z,10.74
2024-04-22T08:01:07.432Z,10.75
2024-04-22T08:04:11.160Z,10.71
2024-04-22T08:07:15.785Z,10.78
2024-04-22T08:10:19.228Z,11.04
2024-04-22T08:13:22.474Z,10.91
2024-04-22T08:16:26.194Z,10.85
2024-04-22T08:19:30.646Z,10.75
2024-04-22T08:22:34.544Z,10.45
2024-04-22T08:25:37.882Z,10.47
2024-04-22T08:28:42.479Z,10.40
2024-04-22T08:31:45.836Z,10.39
2024-04-22T08:34:51.048Z,9.87
2024-04-22T08:37:57.066Z,9.40
2024-04-22T08:41:01.326Z,9.04
2024-04-22T08:44:05.279Z,9.04
2024-04-22T08:47:09.823Z,9.15
2024-04-22T08:50:13.862Z,9.25
2024-04-22T08:53:20.623Z,9.21
2024-04-22T08:56:24.065Z,9.29
2024-04-22T08:59:37.277Z,9.25
2024-04-22T09:02:44.785Z,9.04
2024-04-22T09:05:48.696Z,8.92
2024-04-22T09:08:54.076Z,9.05
2024-04-22T09:12:08.504Z,9.38
2024-04-22T09:15:16.944Z,9.40
2024-04-22T09:18:20.488Z,9.64
2024-04-22T09:21:27.585Z,9.90
2024-04-22T09:24:31.294Z,9.93
2024-04-22T09:27:36.632Z,9.93
2024-04-22T09:30:43.133Z,9.88
2024-04-22T09:33:49.778Z,9.83
2024-04-22T09:36:55.062Z,9.71
2024-04-22T09:40:02.264Z,9.88
2024-04-22T09:43:06.764Z,10.06
2024-04-22T09:46:12.793Z,10.19
2024-04-22T09:49:19.055Z,10.26
2024-04-22T09:52:25.131Z,10.12
2024-04-22T09:55:31.004Z,10.11
2024-04-22T09:58:36.766Z,9.95
2024-04-22T10:01:42.767Z,9.87
2024-04-22T10:04:47.681Z,9.85
2024-04-22T10:07:51.000Z,9.90
2024-04-22T10:10:54.586Z,9.98
2024-04-22T10:14:10.653Z,9.91
2024-04-22T10:17:13.885Z,9.78
2024-04-22T10:20:19.436Z,9.66
2024-04-22T10:23:24.972Z,9.61
2024-04-22T10:26:29.311Z,9.66
2024-04-22T10:29:33.251Z,9.51
2024-04-22T10:32:37.399Z,9.57
2024-04-22T10:35:44.375Z,9.40
2024-04-22T10:38:48.586Z,9.19
2024-04-22T10:41:52.724Z,9.00
2024-04-22T10:44:56.601Z,8.54
2024-04-22T10:48:08.847Z,8.32
2024-04-22T10:51:19.872Z,8.15
2024-04-22T10:54:23.806Z,8.01
2024-04-22T10:57:27.892Z,7.85
2024-04-22T11:00:31.303Z,7.80
2024-04-22T11:03:35.271Z,7.78
2024-04-22T11:06:39.793Z,7.77
2024-04-22T11:09:49.083Z,7.75
2024-04-22T11:12:52.903Z,7.69
2024-04-22T11:16:07.034Z,7.67
2024-04-22T11:19:14.168Z,7.70
2024-04-22T11:22:18.637Z,7.69
2024-04-22T11:25:21.984Z,7.73
2024-04-22T11:28:26.778Z,7.78
2024-04-22T11:31:30.403Z,7.81
2024-04-22T11:34:34.952Z,7.91
2024-04-22T11:37:38.557Z,8.04
2024-04-22T11:40:50.078Z,8.13
2024-04-22T11:43:55.213Z,8.13
2024-04-22T11:46:59.530Z,8.19
2024-04-22T11:50:05.875Z,8.18
2024-04-22T11:53:18.319Z,8.19
2024-04-22T11:56:33.646Z,8.12
2024-04-22T11:59:37.486Z,8.05
2024-04-22T12:02:44.332Z,7.98
2024-04-22T12:05:47.721Z,8.01
2024-04-22T12:08:52.188Z,8.01
2024-04-22T12:11:56.214Z,7.98
2024-04-22T12:15:02.160Z,7.92
2024-04-22T12:18:08.019Z,7.81
2024-04-22T12:21:12.798Z,7.77
2024-04-22T12:24:16.292Z,7.75
2024-04-22T12:27:21.990Z,7.71
2024-04-22T12:30:26.103Z,7.70
2024-04-22T12:33:30.575Z,7.70
2024-04-22T12:36:34.475Z,7.70
2024-04-22T12:39:37.995Z,7.69
2024-04-22T12:42:44.607Z,7.69
2024-04-22T12:45:54.617Z,7.63
2024-04-22T12:49:16.834Z,7.59
2024-04-22T12:52:22.308Z,7.59
2024-04-22T12:55:29.270Z,7.57
2024-04-22T12:58:34.204Z,7.46
2024-04-22T13:01:38.749Z,7.35
2024-04-22T13:04:44.833Z,7.36
2024-04-22T13:07:48.090Z,7.39
2024-04-22T13:10:52.666Z,7.40
2024-04-22T13:13:57.911Z,7.45
2024-04-22T13:17:02.198Z,7.43
2024-04-22T13:20:12.358Z,7.42
2024-04-22T13:23:16.138Z,7.39
2024-04-22T13:26:20.104Z,7.42
2024-04-22T13:29:25.147Z,7.47
2024-04-22T13:32:29.111Z,7.45
2024-04-22T13:35:32.718Z,7.38
2024-04-22T13:38:36.150Z,7.42
2024-04-22T13:41:41.128Z,7.43
2024-04-22T13:44:48.069Z,7.42
2024-04-22T13:47:52.119Z,7.40
2024-04-22T13:50:56.319Z,7.36
2024-04-22T13:54:00.197Z,7.38
2024-04-22T13:57:06.770Z,7.42
2024-04-22T14:00:14.195Z,7.38
2024-04-22T14:03:18.959Z,7.40
2024-04-22T14:06:23.183Z,7.36
2024-04-22T14:09:26.501Z,7.42
2024-04-22T14:12:30.255Z,7.40
2024-04-22T14:15:44.677Z,7.30
2024-04-22T14:18:52.607Z,7.22
2024-04-22T14:21:55.743Z,7.11
2024-04-22T14:24:59.495Z,7.02
2024-04-22T14:28:03.323Z,7.07
2024-04-22T14:31:07.741Z,7.08
2024-04-22T14:34:11.187Z,7.12
2024-04-22T14:37:15.602Z,7.11
2024-04-22T14:40:19.509Z,7.16
2024-04-22T14:43:24.498Z,7.11
2024-04-22T14:46:29.087Z,7.00
2024-04-22T14:49:33.167Z,6.90
2024-04-22T14:52:40.306Z,6.84
2024-04-22T14:55:46.359Z,6.84
2024-04-22T14:58:50.283Z,6.85
2024-04-22T15:01:54.655Z,6.81
2024-04-22T15:04:58.334Z,6.79
2024-04-22T15:08:02.755Z,6.87
2024-04-22T15:11:07.810Z,6.85
2024-04-22T15:14:12.072Z,6.80
2024-04-22T15:17:18.279Z,6.66
2024-04-22T15:20:21.519Z,6.60
2024-04-22T15:23:25.485Z,6.58
2024-04-22T15:26:29.913Z,6.52
2024-04-22T15:29:33.142Z,6.47
2024-04-22T15:32:37.241Z,6.46
2024-04-22T15:35:40.459Z,6.49
2024-04-22T15:38:46.857Z,6.56
2024-04-22T15:41:49.893Z,6.64
2024-04-22T15:44:54.895Z,6.80
2024-04-22T15:47:58.240Z,6.85
2024-04-22T15:51:02.106Z,6.88
2024-04-22T15:54:06.095Z,6.87
2024-04-22T15:57:10.079Z,6.94
2024-04-22T16:00:14.690Z,6.91
2024-04-22T16:03:18.232Z,6.92
2024-04-22T16:06:22.088Z,6.92
2024-04-22T16:09:27.305Z,6.97
2024-04-22T16:12:32.315Z,7.02
2024-04-22T16:15:36.557Z,7.05
2024-04-22T16:18:40.190Z,7.08
2024-04-22T16:21:46.885Z,7.07
2024-04-22T16:24:50.022Z,7.05
2024-04-22T16:27:54.443Z,7.08
2024-04-22T16:30:58.298Z,7.12
2024-04-22T16:34:02.639Z,7.15
2024-04-22T16:37:05.963Z,7.15
2024-04-22T16:40:10.504Z,7.19
2024-04-22T16:43:14.230Z,7.25
2024-04-22T16:46:20.191Z,7.29
2024-04-22T16:49:23.789Z,7.28
2024-04-22T16:52:26.989Z,7.23
2024-04-22T16:55:31.427Z,7.25
2024-04-22T16:58:34.703Z,7.25
2024-04-22T17:01:39.027Z,7.25
2024-04-22T17:04:42.215Z,7.25
2024-04-22T17:07:50.188Z,7.25
2024-04-22T17:10:54.368Z,7.22
2024-04-22T17:14:04.088Z,7.19
2024-04-22T17:17:08.623Z,7.18
2024-04-22T17:20:12.738Z,7.19
2024-04-22T17:23:22.198Z,7.16
2024-04-22T17:26:25.955Z,7.18
2024-04-22T17:29:29.956Z,7.16
2024-04-22T17:32:35.219Z,7.11
2024-04-22T17:35:41.385Z,7.04
2024-04-22T17:38:46.792Z,6.94
2024-04-22T17:41:50.188Z,6.84
2024-04-22T17:44:56.222Z,6.74
2024-04-22T17:47:59.528Z,6.64
2024-04-22T17:51:03.703Z,6.54
2024-04-22T17:54:08.017Z,6.45
2024-04-22T17:57:12.178Z,6.38
2024-04-22T18:00:17.295Z,6.28
2024-04-22T18:03:21.920Z,6.18
2024-04-22T18:06:25.798Z,6.11
2024-04-22T18:09:29.824Z,6.05
2024-04-22T18:12:33.812Z,6.01
2024-04-22T18:15:37.962Z,5.97
2024-04-22T18:18:44.740Z,5.90
2024-04-22T18:21:51.695Z,5.87
2024-04-22T18:24:54.874Z,5.95
2024-04-22T18:27:58.967Z,6.10
2024-04-22T18:31:02.943Z,6.25
2024-04-22T18:34:07.549Z,6.36
2024-04-22T18:37:11.875Z,6.43
2024-04-22T18:40:15.507Z,6.52
2024-04-22T18:43:19.492Z,6.54
2024-04-22T18:46:23.089Z,6.58
2024-04-22T18:49:27.012Z,6.64
2024-04-22T18:52:31.720Z,6.72
2024-04-22T18:55:36.162Z,6.72
2024-04-22T18:58:39.862Z,6.74
2024-04-22T19:01:43.751Z,6.72
2024-04-22T19:04:51.297Z,6.63
2024-04-22T19:07:55.579Z,6.70
2024-04-22T19:11:02.054Z,6.66
2024-04-22T19:14:09.290Z,6.66
2024-04-22T19:17:12.814Z,6.63
2024-04-22T19:20:17.376Z,6.63
2024-04-22T19:23:20.856Z,6.57
2024-04-22T19:26:24.764Z,6.49
2024-04-22T19:29:29.069Z,6.40
2024-04-22T19:32:38.089Z,6.29
2024-04-22T19:35:51.464Z,6.21
2024-04-22T19:38:54.813Z,6.14
2024-04-22T19:42:02.738Z,6.10
2024-04-22T19:45:06.996Z,6.10
2024-04-22T19:48:10.776Z,6.07
2024-04-22T19:51:13.990Z,6.01
2024-04-22T19:54:17.634Z,5.94
2024-04-22T19:57:23.207Z,5.90
2024-04-22T20:00:29.815Z,5.91
2024-04-22T20:03:33.289Z,5.86
2024-04-22T20:06:36.399Z,5.83
2024-04-22T20:09:44.326Z,5.90
2024-04-22T20:12:51.651Z,5.91
2024-04-22T20:16:05.235Z,5.89
2024-04-22T20:19:18.698Z,5.81
2024-04-22T20:22:22.921Z,5.80
2024-04-22T20:25:30.212Z,5.73
2024-04-22T20:28:34.140Z,5.73
2024-04-22T20:31:37.583Z,5.67
2024-04-22T20:34:40.954Z,5.59
2024-04-22T20:37:45.151Z,5.50
2024-04-22T20:40:51.397Z,5.43
2024-04-22T20:44:00.807Z,5.35
2024-04-22T20:47:04.837Z,5.32
2024-04-22T20:50:08.476Z,5.27
2024-04-22T20:53:11.791Z,5.17
2024-04-22T20:56:14.949Z,5.11
2024-04-22T20:59:19.253Z,5.01
2024-04-22T21:02:22.428Z,4.88
2024-04-22T21:05:26.640Z,4.66
2024-04-22T21:08:44.634Z,4.57
2024-04-22T21:11:50.717Z,4.45
2024-04-22T21:14:55.290Z,4.39
2024-04-22T21:17:58.494Z,4.28
2024-04-22T21:21:05.418Z,4.19
2024-04-22T21:24:09.532Z,4.18
2024-04-22T21:27:13.207Z,4.12
2024-04-22T21:30:16.421Z,4.07
2024-04-22T21:33:35.279Z,3.97
2024-04-22T21:36:43.771Z,3.86
2024-04-22T21:39:46.856Z,3.84
2024-04-22T21:42:52.381Z,3.87
2024-04-22T21:45:56.740Z,3.90
2024-04-22T21:49:00.215Z,3.90
2024-04-22T21:52:04.142Z,4.01
2024-04-22T21:55:07.423Z,4.17
2024-04-22T21:58:52.063Z,4.29
2024-04-22T22:02:32.834Z,4.36
2024-04-22T22:06:13.930Z,4.38
2024-04-22T22:09:35.295Z,4.38
2024-04-22T22:12:38.968Z,4.41
2024-04-22T22:15:42.780Z,4.56
2024-04-22T22:18:47.199Z,4.76
2024-04-22T22:21:53.432Z,4.87
2024-04-22T22:24:56.636Z,4.91
2024-04-22T22:28:00.619Z,4.83
2024-04-22T22:31:04.009Z,4.83
2024-04-22T22:34:08.033Z,4.92
2024-04-22T22:37:12.270Z,5.07
2024-04-22T22:40:15.424Z,5.12
2024-04-22T22:43:19.009Z,5.32
2024-04-22T22:46:22.209Z,5.31
2024-04-22T22:49:25.781Z,5.35
2024-04-22T22:52:29.738Z,5.36
2024-04-22T22:55:33.015Z,5.40
2024-04-22T22:58:36.821Z,5.40
2024-04-22T23:01:40.831Z,5.28
2024-04-22T23:04:45.062Z,5.09
2024-04-22T23:07:48.356Z,5.18
2024-04-22T23:10:55.018Z,5.08
2024-04-22T23:13:58.808Z,4.97
2024-04-22T23:17:02.270Z,4.85
2024-04-22T23:20:06.045Z,4.87
2024-04-22T23:23:09.194Z,5.11
2024-04-22T23:26:12.476Z,5.31
2024-04-22T23:29:15.650Z,5.52
2024-04-22T23:32:19.831Z,5.73
2024-04-22T23:35:23.218Z,5.94
2024-04-22T23:38:26.866Z,6.14
2024-04-22T23:41:30.198Z,6.28
2024-04-22T23:44:34.584Z,6.33
2024-04-22T23:47:38.010Z,6.49
2024-04-22T23:50:42.197Z,6.85
2024-04-22T23:53:46.153Z,7.14
